sensor_id;sensor_type;location;lat;lon;timestamp;temperature;humidity
10536;DHT22;5316;49.538;8.352;2023-08-17T00:00:03;19.60;99.90
10536;DHT22;5316;49.538;8.352;2023-08-17T00:02:34;19.50;99.90
10536;DHT22;5316;49.538;8.352;2023-08-17T00:05:03;19.50;99.90
10536;DHT22;5316;49.538;8.352;2023-08-17T00:07:32;19.50;99.90
10536;DHT22;5316;49.538;8.352;2023-08-17T00:10:02;19.40;99.90
10536;DHT22;5316;49.538;8.352;2023-08-17T00:12:30;19.30;99.90
10536;DHT22;5316;49.538;8.352;2023-08-17T00:14:58;19.30;99.90
10536;DHT22;5316;49.538;8.352;2023-08-17T00:17:26;19.30;99.90
10536;DHT22;5316;49.538;8.352;2023-08-17T00:19:58;19.20;99.90
10536;DHT22;5316;49.538;8.352;2023-08-17T00:22:27;19.20;99.90
10536;DHT22;5316;49.538;8.352;2023-08-17T00:24:54;19.20;99.90
10536;DHT22;5316;49.538;8.352;2023-08-17T00:27:21;19.20;99.90
10536;DHT22;5316;49.538;8.352;2023-08-17T00:29:48;19.20;99.90
10536;DHT22;5316;49.538;8.352;2023-08-17T00:32:15;19.40;99.90
10536;DHT22;5316;49.538;8.352;2023-08-17T00:34:41;19.10;99.90
10536;DHT22;5316;49.538;8.352;2023-08-17T00:37:08;19.10;99.90
10536;DHT22;5316;49.538;8.352;2023-08-17T00:39:37;19.00;99.90
10536;DHT22;5316;49.538;8.352;2023-08-17T00:42:04;19.00;99.90
10536;DHT22;5316;49.538;8.352;2023-08-17T00:44:33;19.00;99.90
10536;DHT22;5316;49.538;8.352;2023-08-17T00:47:00;19.00;99.90
10536;DHT22;5316;49.538;8.352;2023-08-17T00:49:27;19.00;99.90
10536;DHT22;5316;49.538;8.352;2023-08-17T00:51:54;19.00;99.90
10536;DHT22;5316;49.538;8.352;2023-08-17T00:54:24;19.10;99.90
10536;DHT22;5316;49.538;8.352;2023-08-17T00:56:53;19.00;99.90
10536;DHT22;5316;49.538;8.352;2023-08-17T00:59:21;19.00;99.90
10536;DHT22;5316;49.538;8.352;2023-08-17T01:01:48;19.00;99.90
10536;DHT22;5316;49.538;8.352;2023-08-17T01:04:17;19.00;99.90
10536;DHT22;5316;49.538;8.352;2023-08-17T01:06:44;18.90;99.90
10536;DHT22;5316;49.538;8.352;2023-08-17T01:09:11;19.10;99.90
10536;DHT22;5316;49.538;8.352;2023-08-17T01:11:41;18.90;99.90
10536;DHT22;5316;49.538;8.352;2023-08-17T01:14:19;19.10;99.90
10536;DHT22;5316;49.538;8.352;2023-08-17T01:16:55;19.00;99.90
10536;DHT22;5316;49.538;8.352;2023-08-17T01:19:25;18.80;99.90
10536;DHT22;5316;49.538;8.352;2023-08-17T01:21:57;18.80;99.90
10536;DHT22;5316;49.538;8.352;2023-08-17T01:24:28;18.80;99.90
10536;DHT22;5316;49.538;8.352;2023-08-17T01:26:55;18.80;99.90
10536;DHT22;5316;49.538;8.352;2023-08-17T01:29:24;18.80;99.90
10536;DHT22;5316;49.538;8.352;2023-08-17T01:31:55;18.80;99.90
10536;DHT22;5316;49.538;8.352;2023-08-17T01:34:25;18.70;99.90
10536;DHT22;5316;49.538;8.352;2023-08-17T01:36:57;18.70;99.90
10536;DHT22;5316;49.538;8.352;2023-08-17T01:39:30;18.70;99.90
10536;DHT22;5316;49.538;8.352;2023-08-17T01:41:59;18.70;99.90
10536;DHT22;5316;49.538;8.352;2023-08-17T01:44:26;18.70;99.90
10536;DHT22;5316;49.538;8.352;2023-08-17T01:46:53;18.60;99.90
10536;DHT22;5316;49.538;8.352;2023-08-17T01:49:20;18.60;99.90
10536;DHT22;5316;49.538;8.352;2023-08-17T01:51:47;18.60;99.90
10536;DHT22;5316;49.538;8.352;2023-08-17T01:54:14;18.60;99.90
10536;DHT22;5316;49.538;8.352;2023-08-17T01:56:42;18.60;99.90
10536;DHT22;5316;49.538;8.352;2023-08-17T01:59:09;18.60;99.90
10536;DHT22;5316;49.538;8.352;2023-08-17T02:01:36;18.50;99.90
10536;DHT22;5316;49.538;8.352;2023-08-17T02:04:03;18.60;99.90
10536;DHT22;5316;49.538;8.352;2023-08-17T02:06:30;18.50;99.90
10536;DHT22;5316;49.538;8.352;2023-08-17T02:09:00;18.70;99.90
10536;DHT22;5316;49.538;8.352;2023-08-17T02:11:27;18.60;99.90
10536;DHT22;5316;49.538;8.352;2023-08-17T02:13:55;18.50;99.90
10536;DHT22;5316;49.538;8.352;2023-08-17T02:16:22;18.40;99.90
10536;DHT22;5316;49.538;8.352;2023-08-17T02:18:49;18.50;99.90
10536;DHT22;5316;49.538;8.352;2023-08-17T02:21:16;18.70;99.90
10536;DHT22;5316;49.538;8.352;2023-08-17T02:23:44;18.50;99.90
10536;DHT22;5316;49.538;8.352;2023-08-17T02:26:11;18.50;99.90
10536;DHT22;5316;49.538;8.352;2023-08-17T02:28:38;18.50;99.90
10536;DHT22;5316;49.538;8.352;2023-08-17T02:31:06;18.60;99.90
10536;DHT22;5316;49.538;8.352;2023-08-17T02:33:33;18.50;99.90
10536;DHT22;5316;49.538;8.352;2023-08-17T02:36:02;18.50;99.90
10536;DHT22;5316;49.538;8.352;2023-08-17T02:38:29;18.50;99.90
10536;DHT22;5316;49.538;8.352;2023-08-17T02:40:56;18.40;99.90
10536;DHT22;5316;49.538;8.352;2023-08-17T02:43:23;18.50;99.90
10536;DHT22;5316;49.538;8.352;2023-08-17T02:45:50;18.50;99.90
10536;DHT22;5316;49.538;8.352;2023-08-17T02:48:18;18.50;99.90
10536;DHT22;5316;49.538;8.352;2023-08-17T02:50:45;18.40;99.90
10536;DHT22;5316;49.538;8.352;2023-08-17T02:53:12;18.50;99.90
10536;DHT22;5316;49.538;8.352;2023-08-17T02:55:39;18.50;99.90
10536;DHT22;5316;49.538;8.352;2023-08-17T02:58:06;18.50;99.90
10536;DHT22;5316;49.538;8.352;2023-08-17T03:00:32;18.50;99.90
10536;DHT22;5316;49.538;8.352;2023-08-17T03:02:59;18.60;99.90
10536;DHT22;5316;49.538;8.352;2023-08-17T03:05:27;18.40;99.90
10536;DHT22;5316;49.538;8.352;2023-08-17T03:07:54;18.50;99.90
10536;DHT22;5316;49.538;8.352;2023-08-17T03:10:22;18.50;99.90
10536;DHT22;5316;49.538;8.352;2023-08-17T03:12:50;18.60;99.90
10536;DHT22;5316;49.538;8.352;2023-08-17T03:15:17;18.50;99.90
10536;DHT22;5316;49.538;8.352;2023-08-17T03:17:44;18.50;99.90
10536;DHT22;5316;49.538;8.352;2023-08-17T03:20:11;18.60;99.90
10536;DHT22;5316;49.538;8.352;2023-08-17T03:22:39;18.50;99.90
10536;DHT22;5316;49.538;8.352;2023-08-17T03:25:07;18.70;99.90
10536;DHT22;5316;49.538;8.352;2023-08-17T03:27:34;18.40;99.90
10536;DHT22;5316;49.538;8.352;2023-08-17T03:30:00;18.40;99.90
10536;DHT22;5316;49.538;8.352;2023-08-17T03:32:28;18.40;99.90
10536;DHT22;5316;49.538;8.352;2023-08-17T03:34:54;18.40;99.90
10536;DHT22;5316;49.538;8.352;2023-08-17T03:37:21;18.40;99.90
10536;DHT22;5316;49.538;8.352;2023-08-17T03:39:49;18.20;99.90
10536;DHT22;5316;49.538;8.352;2023-08-17T03:42:16;18.50;99.90
10536;DHT22;5316;49.538;8.352;2023-08-17T03:44:43;18.30;99.90
10536;DHT22;5316;49.538;8.352;2023-08-17T03:47:10;18.30;99.90
10536;DHT22;5316;49.538;8.352;2023-08-17T03:49:37;18.40;99.90
10536;DHT22;5316;49.538;8.352;2023-08-17T03:52:04;18.40;99.90
10536;DHT22;5316;49.538;8.352;2023-08-17T03:54:31;18.40;99.90
10536;DHT22;5316;49.538;8.352;2023-08-17T03:56:59;18.40;99.90
10536;DHT22;5316;49.538;8.352;2023-08-17T03:59:26;18.40;99.90
10536;DHT22;5316;49.538;8.352;2023-08-17T04:01:53;18.50;99.90
10536;DHT22;5316;49.538;8.352;2023-08-17T04:04:20;18.60;99.90
10536;DHT22;5316;49.538;8.352;2023-08-17T04:06:47;18.60;99.90
10536;DHT22;5316;49.538;8.352;2023-08-17T04:09:14;18.50;99.90
10536;DHT22;5316;49.538;8.352;2023-08-17T04:11:40;18.40;99.90
10536;DHT22;5316;49.538;8.352;2023-08-17T04:14:09;18.50;99.90
10536;DHT22;5316;49.538;8.352;2023-08-17T04:16:36;18.60;99.90
10536;DHT22;5316;49.538;8.352;2023-08-17T04:19:03;18.50;99.90
10536;DHT22;5316;49.538;8.352;2023-08-17T04:21:30;18.50;99.90
10536;DHT22;5316;49.538;8.352;2023-08-17T04:23:57;18.60;99.90
10536;DHT22;5316;49.538;8.352;2023-08-17T04:26:24;18.50;99.90
10536;DHT22;5316;49.538;8.352;2023-08-17T04:28:51;18.50;99.90
10536;DHT22;5316;49.538;8.352;2023-08-17T04:31:19;18.50;99.90
10536;DHT22;5316;49.538;8.352;2023-08-17T04:33:45;18.50;99.90
10536;DHT22;5316;49.538;8.352;2023-08-17T04:36:12;18.60;99.90
10536;DHT22;5316;49.538;8.352;2023-08-17T04:38:39;18.80;99.90
10536;DHT22;5316;49.538;8.352;2023-08-17T04:41:06;18.50;99.90
10536;DHT22;5316;49.538;8.352;2023-08-17T04:43:33;18.50;99.90
10536;DHT22;5316;49.538;8.352;2023-08-17T04:46:06;18.60;99.90
10536;DHT22;5316;49.538;8.352;2023-08-17T04:48:34;18.60;99.90
10536;DHT22;5316;49.538;8.352;2023-08-17T04:51:01;18.60;99.90
10536;DHT22;5316;49.538;8.352;2023-08-17T04:53:28;18.80;99.90
10536;DHT22;5316;49.538;8.352;2023-08-17T04:55:55;18.60;99.90
10536;DHT22;5316;49.538;8.352;2023-08-17T04:58:22;18.60;99.90
10536;DHT22;5316;49.538;8.352;2023-08-17T05:00:49;18.60;99.90
10536;DHT22;5316;49.538;8.352;2023-08-17T05:03:16;18.60;99.90
10536;DHT22;5316;49.538;8.352;2023-08-17T05:05:44;18.70;99.90
10536;DHT22;5316;49.538;8.352;2023-08-17T05:08:11;18.70;99.90
10536;DHT22;5316;49.538;8.352;2023-08-17T05:10:39;18.70;99.90
10536;DHT22;5316;49.538;8.352;2023-08-17T05:13:06;18.70;99.90
10536;DHT22;5316;49.538;8.352;2023-08-17T05:15:32;18.70;99.90
10536;DHT22;5316;49.538;8.352;2023-08-17T05:17:59;18.70;99.90
10536;DHT22;5316;49.538;8.352;2023-08-17T05:20:26;18.80;99.90
10536;DHT22;5316;49.538;8.352;2023-08-17T05:22:54;18.80;99.90
10536;DHT22;5316;49.538;8.352;2023-08-17T05:25:20;18.80;99.90
10536;DHT22;5316;49.538;8.352;2023-08-17T05:27:48;18.80;99.90
10536;DHT22;5316;49.538;8.352;2023-08-17T05:30:15;18.90;99.90
10536;DHT22;5316;49.538;8.352;2023-08-17T05:32:42;18.90;99.90
10536;DHT22;5316;49.538;8.352;2023-08-17T05:35:12;18.90;99.90
10536;DHT22;5316;49.538;8.352;2023-08-17T05:37:39;18.90;99.90
10536;DHT22;5316;49.538;8.352;2023-08-17T05:40:08;19.00;99.90
10536;DHT22;5316;49.538;8.352;2023-08-17T05:42:37;19.10;99.90
10536;DHT22;5316;49.538;8.352;2023-08-17T05:45:04;19.10;99.90
10536;DHT22;5316;49.538;8.352;2023-08-17T05:47:31;19.10;99.90
10536;DHT22;5316;49.538;8.352;2023-08-17T05:49:58;19.10;99.90
10536;DHT22;5316;49.538;8.352;2023-08-17T05:52:25;19.10;99.90
10536;DHT22;5316;49.538;8.352;2023-08-17T05:54:51;19.10;99.90
10536;DHT22;5316;49.538;8.352;2023-08-17T05:57:19;19.10;99.90
10536;DHT22;5316;49.538;8.352;2023-08-17T05:59:46;19.20;99.90
10536;DHT22;5316;49.538;8.352;2023-08-17T06:02:16;19.20;99.90
10536;DHT22;5316;49.538;8.352;2023-08-17T06:04:42;19.30;99.90
10536;DHT22;5316;49.538;8.352;2023-08-17T06:07:09;19.30;99.90
10536;DHT22;5316;49.538;8.352;2023-08-17T06:09:36;19.30;99.90
10536;DHT22;5316;49.538;8.352;2023-08-17T06:12:03;19.40;99.90
10536;DHT22;5316;49.538;8.352;2023-08-17T06:14:32;19.40;99.90
10536;DHT22;5316;49.538;8.352;2023-08-17T06:16:59;19.40;99.90
10536;DHT22;5316;49.538;8.352;2023-08-17T06:19:26;19.50;99.90
10536;DHT22;5316;49.538;8.352;2023-08-17T06:21:53;19.50;99.90
10536;DHT22;5316;49.538;8.352;2023-08-17T06:24:21;19.40;99.90
10536;DHT22;5316;49.538;8.352;2023-08-17T06:26:48;19.50;99.90
10536;DHT22;5316;49.538;8.352;2023-08-17T06:29:15;19.50;99.90
10536;DHT22;5316;49.538;8.352;2023-08-17T06:31:43;19.60;99.90
10536;DHT22;5316;49.538;8.352;2023-08-17T06:34:11;19.70;99.90
10536;DHT22;5316;49.538;8.352;2023-08-17T06:36:41;19.80;99.90
10536;DHT22;5316;49.538;8.352;2023-08-17T06:39:08;19.70;99.90
10536;DHT22;5316;49.538;8.352;2023-08-17T06:44:42;20.00;99.90
10536;DHT22;5316;49.538;8.352;2023-08-17T06:47:11;19.90;99.90
10536;DHT22;5316;49.538;8.352;2023-08-17T06:49:39;19.80;99.90
10536;DHT22;5316;49.538;8.352;2023-08-17T06:52:06;19.80;99.90
10536;DHT22;5316;49.538;8.352;2023-08-17T06:54:34;19.80;99.90
10536;DHT22;5316;49.538;8.352;2023-08-17T06:57:01;19.70;99.90
10536;DHT22;5316;49.538;8.352;2023-08-17T06:59:29;19.70;99.90
10536;DHT22;5316;49.538;8.352;2023-08-17T07:01:59;19.60;99.90
10536;DHT22;5316;49.538;8.352;2023-08-17T07:04:28;19.60;99.90
10536;DHT22;5316;49.538;8.352;2023-08-17T07:06:55;19.70;99.90
10536;DHT22;5316;49.538;8.352;2023-08-17T07:09:23;19.70;99.90
10536;DHT22;5316;49.538;8.352;2023-08-17T07:11:50;19.80;99.90
10536;DHT22;5316;49.538;8.352;2023-08-17T07:14:18;19.90;99.90
10536;DHT22;5316;49.538;8.352;2023-08-17T07:16:45;20.00;99.90
10536;DHT22;5316;49.538;8.352;2023-08-17T07:19:12;20.10;99.90
10536;DHT22;5316;49.538;8.352;2023-08-17T07:21:42;20.20;99.90
10536;DHT22;5316;49.538;8.352;2023-08-17T07:24:16;20.30;99.90
10536;DHT22;5316;49.538;8.352;2023-08-17T07:26:43;20.40;99.90
10536;DHT22;5316;49.538;8.352;2023-08-17T07:29:10;20.40;99.90
10536;DHT22;5316;49.538;8.352;2023-08-17T07:31:37;20.50;99.90
10536;DHT22;5316;49.538;8.352;2023-08-17T07:34:06;20.50;99.90
10536;DHT22;5316;49.538;8.352;2023-08-17T07:36:34;20.60;99.90
10536;DHT22;5316;49.538;8.352;2023-08-17T07:39:02;20.50;99.90
10536;DHT22;5316;49.538;8.352;2023-08-17T07:44:59;20.60;99.90
10536;DHT22;5316;49.538;8.352;2023-08-17T07:47:26;20.60;99.90
10536;DHT22;5316;49.538;8.352;2023-08-17T07:49:53;20.60;99.90
10536;DHT22;5316;49.538;8.352;2023-08-17T07:52:43;20.60;99.90
10536;DHT22;5316;49.538;8.352;2023-08-17T07:55:11;20.60;99.90
10536;DHT22;5316;49.538;8.352;2023-08-17T07:57:38;20.60;99.90
10536;DHT22;5316;49.538;8.352;2023-08-17T08:00:06;20.60;99.90
10536;DHT22;5316;49.538;8.352;2023-08-17T08:05:30;20.70;99.90
10536;DHT22;5316;49.538;8.352;2023-08-17T08:07:57;20.70;99.90
10536;DHT22;5316;49.538;8.352;2023-08-17T08:10:26;20.70;99.90
10536;DHT22;5316;49.538;8.352;2023-08-17T08:12:53;20.70;99.90
10536;DHT22;5316;49.538;8.352;2023-08-17T08:15:40;20.70;99.90
10536;DHT22;5316;49.538;8.352;2023-08-17T08:18:08;20.70;99.90
10536;DHT22;5316;49.538;8.352;2023-08-17T08:20:35;20.80;99.90
10536;DHT22;5316;49.538;8.352;2023-08-17T08:23:10;20.90;99.90
10536;DHT22;5316;49.538;8.352;2023-08-17T08:25:48;21.00;99.90
10536;DHT22;5316;49.538;8.352;2023-08-17T08:28:15;21.00;99.90
10536;DHT22;5316;49.538;8.352;2023-08-17T08:51:27;21.30;99.90
10536;DHT22;5316;49.538;8.352;2023-08-17T08:54:01;21.40;99.90
10536;DHT22;5316;49.538;8.352;2023-08-17T10:55:35;22.90;99.90
10536;DHT22;5316;49.538;8.352;2023-08-17T10:58:04;22.90;99.90
10536;DHT22;5316;49.538;8.352;2023-08-17T11:00:36;22.90;99.90
10536;DHT22;5316;49.538;8.352;2023-08-17T11:03:07;23.00;99.90
10536;DHT22;5316;49.538;8.352;2023-08-17T11:05:38;23.00;99.90
10536;DHT22;5316;49.538;8.352;2023-08-17T11:08:09;23.00;99.90
10536;DHT22;5316;49.538;8.352;2023-08-17T11:15:02;23.10;99.90
10536;DHT22;5316;49.538;8.352;2023-08-17T11:18:05;23.20;99.90
10536;DHT22;5316;49.538;8.352;2023-08-17T11:21:44;23.40;99.90
10536;DHT22;5316;49.538;8.352;2023-08-17T11:25:18;23.50;99.90
10536;DHT22;5316;49.538;8.352;2023-08-17T11:29:03;23.60;99.90
10536;DHT22;5316;49.538;8.352;2023-08-17T11:32:06;23.70;99.90
10536;DHT22;5316;49.538;8.352;2023-08-17T11:48:02;24.30;94.50
10536;DHT22;5316;49.538;8.352;2023-08-17T11:51:20;24.40;32.80
10536;DHT22;5316;49.538;8.352;2023-08-17T11:57:54;24.70;13.20
10536;DHT22;5316;49.538;8.352;2023-08-17T12:00:57;24.70;25.80
10536;DHT22;5316;49.538;8.352;2023-08-17T12:17:13;24.90;1.00
10536;DHT22;5316;49.538;8.352;2023-08-17T12:19:41;25.00;1.00
10536;DHT22;5316;49.538;8.352;2023-08-17T12:22:10;25.00;12.10
10536;DHT22;5316;49.538;8.352;2023-08-17T12:28:24;25.30;22.50
10536;DHT22;5316;49.538;8.352;2023-08-17T12:31:52;25.50;1.00
10536;DHT22;5316;49.538;8.352;2023-08-17T12:41:29;25.60;1.00
10536;DHT22;5316;49.538;8.352;2023-08-17T12:43:57;25.70;1.00
10536;DHT22;5316;49.538;8.352;2023-08-17T12:46:27;25.70;1.00
10536;DHT22;5316;49.538;8.352;2023-08-17T12:49:01;25.80;1.00
10536;DHT22;5316;49.538;8.352;2023-08-17T12:51:49;25.80;1.00
10536;DHT22;5316;49.538;8.352;2023-08-17T12:54:33;25.80;1.00
10536;DHT22;5316;49.538;8.352;2023-08-17T12:57:28;25.80;1.00
10536;DHT22;5316;49.538;8.352;2023-08-17T13:00:04;25.80;1.00
10536;DHT22;5316;49.538;8.352;2023-08-17T13:02:45;25.80;1.00
10536;DHT22;5316;49.538;8.352;2023-08-17T13:05:14;25.90;1.00
10536;DHT22;5316;49.538;8.352;2023-08-17T13:07:42;25.90;1.00
10536;DHT22;5316;49.538;8.352;2023-08-17T13:10:10;25.80;1.00
10536;DHT22;5316;49.538;8.352;2023-08-17T13:12:39;25.90;1.00
10536;DHT22;5316;49.538;8.352;2023-08-17T13:15:07;26.20;1.00
10536;DHT22;5316;49.538;8.352;2023-08-17T13:17:37;25.90;1.00
10536;DHT22;5316;49.538;8.352;2023-08-17T13:20:05;26.00;1.00
10536;DHT22;5316;49.538;8.352;2023-08-17T13:22:35;26.10;1.00
10536;DHT22;5316;49.538;8.352;2023-08-17T13:25:03;26.20;1.00
10536;DHT22;5316;49.538;8.352;2023-08-17T13:27:32;26.40;1.00
10536;DHT22;5316;49.538;8.352;2023-08-17T13:30:04;26.50;1.00
10536;DHT22;5316;49.538;8.352;2023-08-17T13:32:32;26.70;1.00
10536;DHT22;5316;49.538;8.352;2023-08-17T13:35:02;26.70;1.00
10536;DHT22;5316;49.538;8.352;2023-08-17T13:37:29;26.70;1.00
10536;DHT22;5316;49.538;8.352;2023-08-17T13:39:56;26.80;1.00
10536;DHT22;5316;49.538;8.352;2023-08-17T13:42:23;26.80;1.00
10536;DHT22;5316;49.538;8.352;2023-08-17T13:44:50;26.90;1.00
10536;DHT22;5316;49.538;8.352;2023-08-17T13:47:18;26.80;1.00
10536;DHT22;5316;49.538;8.352;2023-08-17T13:49:45;26.90;1.00
10536;DHT22;5316;49.538;8.352;2023-08-17T13:52:12;26.80;1.00
10536;DHT22;5316;49.538;8.352;2023-08-17T13:54:41;26.90;1.00
10536;DHT22;5316;49.538;8.352;2023-08-17T13:57:08;27.10;1.00
10536;DHT22;5316;49.538;8.352;2023-08-17T13:59:35;27.00;1.00
10536;DHT22;5316;49.538;8.352;2023-08-17T14:02:02;27.10;1.00
10536;DHT22;5316;49.538;8.352;2023-08-17T14:04:30;27.50;1.00
10536;DHT22;5316;49.538;8.352;2023-08-17T14:06:57;28.10;1.00
10536;DHT22;5316;49.538;8.352;2023-08-17T14:09:24;28.30;1.00
10536;DHT22;5316;49.538;8.352;2023-08-17T14:11:51;28.60;1.00
10536;DHT22;5316;49.538;8.352;2023-08-17T14:14:18;28.80;1.00
10536;DHT22;5316;49.538;8.352;2023-08-17T14:16:45;29.20;1.00
10536;DHT22;5316;49.538;8.352;2023-08-17T14:19:11;29.50;99.90
10536;DHT22;5316;49.538;8.352;2023-08-17T14:21:39;29.80;99.90
10536;DHT22;5316;49.538;8.352;2023-08-17T14:24:12;29.90;99.90
10536;DHT22;5316;49.538;8.352;2023-08-17T14:26:40;30.10;99.90
10536;DHT22;5316;49.538;8.352;2023-08-17T14:29:07;30.10;99.90
10536;DHT22;5316;49.538;8.352;2023-08-17T14:31:34;29.90;99.90
10536;DHT22;5316;49.538;8.352;2023-08-17T14:34:01;29.90;99.90
10536;DHT22;5316;49.538;8.352;2023-08-17T14:36:28;30.20;70.80
10536;DHT22;5316;49.538;8.352;2023-08-17T14:38:56;30.60;1.00
10536;DHT22;5316;49.538;8.352;2023-08-17T14:41:23;30.90;99.90
10536;DHT22;5316;49.538;8.352;2023-08-17T14:43:58;31.00;19.30
10536;DHT22;5316;49.538;8.352;2023-08-17T14:46:25;31.30;99.90
10536;DHT22;5316;49.538;8.352;2023-08-17T14:48:54;31.50;1.00
10536;DHT22;5316;49.538;8.352;2023-08-17T14:51:21;31.90;99.90
10536;DHT22;5316;49.538;8.352;2023-08-17T14:53:48;32.30;99.90
10536;DHT22;5316;49.538;8.352;2023-08-17T14:56:16;32.50;99.90
10536;DHT22;5316;49.538;8.352;2023-08-17T14:58:43;32.40;99.90
10536;DHT22;5316;49.538;8.352;2023-08-17T15:01:10;32.10;99.90
10536;DHT22;5316;49.538;8.352;2023-08-17T15:03:37;31.60;82.90
10536;DHT22;5316;49.538;8.352;2023-08-17T15:06:05;31.20;99.90
10536;DHT22;5316;49.538;8.352;2023-08-17T15:08:35;31.10;99.90
10536;DHT22;5316;49.538;8.352;2023-08-17T15:11:01;31.20;99.90
10536;DHT22;5316;49.538;8.352;2023-08-17T15:13:32;31.10;1.00
10536;DHT22;5316;49.538;8.352;2023-08-17T15:15:59;31.60;99.90
10536;DHT22;5316;49.538;8.352;2023-08-17T15:18:26;31.80;99.90
10536;DHT22;5316;49.538;8.352;2023-08-17T15:20:53;31.80;99.90
10536;DHT22;5316;49.538;8.352;2023-08-17T15:23:20;31.60;1.00
10536;DHT22;5316;49.538;8.352;2023-08-17T15:25:47;31.80;99.90
10536;DHT22;5316;49.538;8.352;2023-08-17T15:28:14;31.80;99.90
10536;DHT22;5316;49.538;8.352;2023-08-17T15:30:42;32.00;1.00
10536;DHT22;5316;49.538;8.352;2023-08-17T15:33:09;32.30;99.90
10536;DHT22;5316;49.538;8.352;2023-08-17T15:35:35;32.50;1.00
10536;DHT22;5316;49.538;8.352;2023-08-17T15:38:03;32.50;1.00
10536;DHT22;5316;49.538;8.352;2023-08-17T15:40:29;32.90;1.00
10536;DHT22;5316;49.538;8.352;2023-08-17T15:42:56;33.60;99.90
10536;DHT22;5316;49.538;8.352;2023-08-17T15:45:23;34.30;1.00
10536;DHT22;5316;49.538;8.352;2023-08-17T15:47:51;34.40;99.90
10536;DHT22;5316;49.538;8.352;2023-08-17T15:50:21;34.60;1.00
10536;DHT22;5316;49.538;8.352;2023-08-17T15:52:50;34.80;1.00
10536;DHT22;5316;49.538;8.352;2023-08-17T15:55:16;35.00;1.00
10536;DHT22;5316;49.538;8.352;2023-08-17T15:57:43;34.90;1.00
10536;DHT22;5316;49.538;8.352;2023-08-17T16:00:11;34.90;1.00
10536;DHT22;5316;49.538;8.352;2023-08-17T16:02:38;34.90;1.00
10536;DHT22;5316;49.538;8.352;2023-08-17T16:05:07;35.10;1.00
10536;DHT22;5316;49.538;8.352;2023-08-17T16:07:33;34.80;1.00
10536;DHT22;5316;49.538;8.352;2023-08-17T16:10:00;35.40;1.00
10536;DHT22;5316;49.538;8.352;2023-08-17T16:12:28;35.00;99.90
10536;DHT22;5316;49.538;8.352;2023-08-17T16:14:55;35.00;1.00
10536;DHT22;5316;49.538;8.352;2023-08-17T16:17:24;35.30;99.90
10536;DHT22;5316;49.538;8.352;2023-08-17T16:19:54;35.70;1.00
10536;DHT22;5316;49.538;8.352;2023-08-17T16:22:28;36.00;99.90
10536;DHT22;5316;49.538;8.352;2023-08-17T16:25:00;36.00;99.90
10536;DHT22;5316;49.538;8.352;2023-08-17T16:27:27;36.40;99.90
10536;DHT22;5316;49.538;8.352;2023-08-17T16:29:57;37.00;99.90
10536;DHT22;5316;49.538;8.352;2023-08-17T16:32:24;36.70;30.20
10536;DHT22;5316;49.538;8.352;2023-08-17T16:34:51;36.60;94.30
10536;DHT22;5316;49.538;8.352;2023-08-17T16:37:20;36.80;14.80
10536;DHT22;5316;49.538;8.352;2023-08-17T16:39:49;37.00;1.00
10536;DHT22;5316;49.538;8.352;2023-08-17T16:42:18;36.90;1.00
10536;DHT22;5316;49.538;8.352;2023-08-17T16:44:50;37.20;1.00
10536;DHT22;5316;49.538;8.352;2023-08-17T16:47:17;37.00;1.00
10536;DHT22;5316;49.538;8.352;2023-08-17T16:49:45;36.70;1.00
10536;DHT22;5316;49.538;8.352;2023-08-17T16:52:12;36.80;7.70
10536;DHT22;5316;49.538;8.352;2023-08-17T16:54:45;36.80;21.80
10536;DHT22;5316;49.538;8.352;2023-08-17T16:57:18;36.70;41.00
10536;DHT22;5316;49.538;8.352;2023-08-17T17:00:04;36.60;1.00
10536;DHT22;5316;49.538;8.352;2023-08-17T17:02:45;36.60;46.20
10536;DHT22;5316;49.538;8.352;2023-08-17T17:05:46;36.20;99.90
10536;DHT22;5316;49.538;8.352;2023-08-17T17:09:25;35.20;99.90
10536;DHT22;5316;49.538;8.352;2023-08-17T19:26:13;26.20;1.00
10536;DHT22;5316;49.538;8.352;2023-08-17T19:28:54;26.10;1.00
10536;DHT22;5316;49.538;8.352;2023-08-17T19:31:35;26.10;1.00
10536;DHT22;5316;49.538;8.352;2023-08-17T19:34:15;26.00;1.00
10536;DHT22;5316;49.538;8.352;2023-08-17T19:36:47;25.90;1.00
10536;DHT22;5316;49.538;8.352;2023-08-17T19:39:27;25.90;1.00
10536;DHT22;5316;49.538;8.352;2023-08-17T19:42:37;25.80;1.00
10536;DHT22;5316;49.538;8.352;2023-08-17T19:48:00;25.70;1.00
10536;DHT22;5316;49.538;8.352;2023-08-17T19:50:47;25.60;1.00
10536;DHT22;5316;49.538;8.352;2023-08-17T19:53:26;25.50;1.00
10536;DHT22;5316;49.538;8.352;2023-08-17T19:55:59;25.50;1.00
10536;DHT22;5316;49.538;8.352;2023-08-17T19:58:45;25.50;1.00
10536;DHT22;5316;49.538;8.352;2023-08-17T20:01:16;25.40;1.00
10536;DHT22;5316;49.538;8.352;2023-08-17T20:04:18;25.30;1.00
10536;DHT22;5316;49.538;8.352;2023-08-17T20:14:10;25.20;22.10
10536;DHT22;5316;49.538;8.352;2023-08-17T20:16:38;25.20;18.10
10536;DHT22;5316;49.538;8.352;2023-08-17T20:19:14;25.20;1.00
10536;DHT22;5316;49.538;8.352;2023-08-17T20:21:41;25.10;1.00
10536;DHT22;5316;49.538;8.352;2023-08-17T20:24:09;25.10;1.00
10536;DHT22;5316;49.538;8.352;2023-08-17T20:26:37;25.00;1.00
10536;DHT22;5316;49.538;8.352;2023-08-17T20:29:07;25.10;1.00
10536;DHT22;5316;49.538;8.352;2023-08-17T20:31:38;25.00;1.00
10536;DHT22;5316;49.538;8.352;2023-08-17T20:34:06;24.90;1.00
10536;DHT22;5316;49.538;8.352;2023-08-17T20:36:33;24.90;1.00
10536;DHT22;5316;49.538;8.352;2023-08-17T20:39:05;25.00;1.00
10536;DHT22;5316;49.538;8.352;2023-08-17T20:41:38;24.90;14.90
10536;DHT22;5316;49.538;8.352;2023-08-17T20:44:07;24.90;23.20
10536;DHT22;5316;49.538;8.352;2023-08-17T20:46:38;24.80;15.60
10536;DHT22;5316;49.538;8.352;2023-08-17T20:49:05;24.80;32.60
10536;DHT22;5316;49.538;8.352;2023-08-17T20:51:33;24.80;39.00
10536;DHT22;5316;49.538;8.352;2023-08-17T20:54:00;24.80;36.10
10536;DHT22;5316;49.538;8.352;2023-08-17T20:56:28;24.80;58.70
10536;DHT22;5316;49.538;8.352;2023-08-17T20:58:58;24.70;70.20
10536;DHT22;5316;49.538;8.352;2023-08-17T21:01:25;24.70;74.00
10536;DHT22;5316;49.538;8.352;2023-08-17T21:03:53;24.70;80.00
10536;DHT22;5316;49.538;8.352;2023-08-17T21:06:20;24.70;93.70
10536;DHT22;5316;49.538;8.352;2023-08-17T21:08:47;24.60;92.20
10536;DHT22;5316;49.538;8.352;2023-08-17T21:11:22;24.60;85.40
10536;DHT22;5316;49.538;8.352;2023-08-17T21:13:49;24.70;79.80
10536;DHT22;5316;49.538;8.352;2023-08-17T21:16:16;24.60;93.40
10536;DHT22;5316;49.538;8.352;2023-08-17T21:18:44;24.60;99.90
10536;DHT22;5316;49.538;8.352;2023-08-17T21:21:13;24.50;99.90
10536;DHT22;5316;49.538;8.352;2023-08-17T21:23:40;24.50;99.90
10536;DHT22;5316;49.538;8.352;2023-08-17T21:26:07;24.50;99.90
10536;DHT22;5316;49.538;8.352;2023-08-17T21:28:35;24.50;99.90
10536;DHT22;5316;49.538;8.352;2023-08-17T21:31:05;24.40;99.90
10536;DHT22;5316;49.538;8.352;2023-08-17T21:33:33;24.40;99.90
10536;DHT22;5316;49.538;8.352;2023-08-17T21:36:02;24.30;99.90
10536;DHT22;5316;49.538;8.352;2023-08-17T21:38:30;24.30;99.90
10536;DHT22;5316;49.538;8.352;2023-08-17T21:41:01;24.30;99.90
10536;DHT22;5316;49.538;8.352;2023-08-17T21:43:31;24.30;99.90
10536;DHT22;5316;49.538;8.352;2023-08-17T21:45:59;24.20;99.90
10536;DHT22;5316;49.538;8.352;2023-08-17T21:48:27;24.20;99.90